Time;durP1;ratioP1;P1;durP2;ratioP2;P2;SDS_P1;SDS_P2;PMS_P1;PMS_P2;Temp;Humidity;BMP_temperature;BMP_pressure;BME280_temperature;BME280_humidity;BME280_pressure;Samples;Min_cycle;Max_cycle;Signal;HPM_P1;HPM_P2
2023/06/15 00:01:03;;;;;;;2.90;2.40;;;;;;;13.35;100.00;97690.91;1705391;75;973935;-71
2023/06/15 00:03:33;;;;;;;2.50;2.25;;;;;;;13.35;100.00;97688.91;1701335;75;673777;-71
2023/06/15 00:06:03;;;;;;;2.00;1.80;;;;;;;13.45;100.00;97683.19;1708744;75;675311;-72
2023/06/15 00:08:34;;;;;;;1.60;1.50;;;;;;;13.45;100.00;97672.19;1700748;75;685848;-70
2023/06/15 00:11:08;;;;;;;2.05;1.70;;;;;;;13.51;100.00;97673.69;1706937;75;847706;-74
2023/06/15 00:13:38;;;;;;;1.50;1.30;;;;;;;13.53;100.00;97673.19;1701050;75;743758;-71
2023/06/15 00:16:08;;;;;;;1.20;1.10;;;;;;;13.53;100.00;97668.44;1709591;75;672285;-70
2023/06/15 00:18:38;;;;;;;1.35;1.20;;;;;;;13.46;100.00;97666.19;1700761;75;769732;-71
2023/06/15 00:21:09;;;;;;;1.40;1.30;;;;;;;13.52;100.00;97664.22;1709030;75;694106;-73
2023/06/15 00:23:40;;;;;;;1.50;1.40;;;;;;;13.49;100.00;97661.69;1700896;75;745766;-70
2023/06/15 00:26:13;;;;;;;1.10;1.00;;;;;;;13.47;100.00;97662.19;1709189;75;683470;-72
2023/06/15 00:28:43;;;;;;;1.40;1.30;;;;;;;13.44;100.00;97663.16;1700588;75;740464;-73
2023/06/15 00:31:13;;;;;;;3.20;2.55;;;;;;;13.15;100.00;97669.78;1709080;75;696446;-70
2023/06/15 00:33:43;;;;;;;3.10;2.80;;;;;;;13.28;100.00;97663.88;1701019;75;744963;-74
2023/06/15 00:36:13;;;;;;;2.40;2.20;;;;;;;13.42;100.00;97662.91;1706354;75;914632;-70
2023/06/15 00:38:43;;;;;;;2.60;1.90;;;;;;;13.43;100.00;97661.66;1700647;75;744103;-72
2023/06/15 00:41:16;;;;;;;2.10;1.90;;;;;;;13.37;100.00;97667.16;1709444;75;671578;-73
2023/06/15 00:43:46;;;;;;;1.65;1.50;;;;;;;13.38;100.00;97667.91;1701361;75;744006;-73
2023/06/15 00:46:18;;;;;;;1.55;1.40;;;;;;;13.41;100.00;97670.41;1709876;75;677903;-72
2023/06/15 00:48:49;;;;;;;2.05;1.85;;;;;;;13.33;100.00;97674.13;1689141;75;1852858;-71
2023/06/15 00:51:19;;;;;;;1.90;1.50;;;;;;;13.38;100.00;97665.91;1696662;75;1893676;-75
2023/06/15 00:53:50;;;;;;;1.65;1.35;;;;;;;13.44;100.00;97665.91;1701737;75;745401;-74
2023/06/15 00:56:23;;;;;;;1.90;1.50;;;;;;;13.39;100.00;97658.41;1710175;75;672434;-72
2023/06/15 00:58:53;;;;;;;1.95;1.40;;;;;;;13.38;100.00;97657.66;1700890;75;743964;-71
2023/06/15 01:01:23;;;;;;;1.70;1.60;;;;;;;13.39;100.00;97655.66;1709411;75;671012;-70
2023/06/15 01:03:54;;;;;;;1.85;1.65;;;;;;;13.30;100.00;97658.59;1700669;75;747937;-70
2023/06/15 01:06:31;;;;;;;2.25;2.05;;;;;;;13.24;100.00;97661.31;1709259;75;673065;-69
2023/06/15 01:09:03;;;;;;;2.40;2.00;;;;;;;13.28;100.00;97664.63;1700777;75;746278;-69
2023/06/15 01:11:38;;;;;;;1.90;1.70;;;;;;;13.22;100.00;97672.78;1710081;75;668153;-71
2023/06/15 01:14:10;;;;;;;2.40;2.10;;;;;;;13.14;100.00;97669.03;1700638;75;746136;-71
2023/06/15 01:16:44;;;;;;;4.30;1.90;;;;;;;13.18;100.00;97661.31;1709939;75;669879;-70
2023/06/15 01:19:34;;;;;;;2.00;1.80;;;;;;;13.21;100.00;97659.56;1700215;75;751939;-75
2023/06/15 01:22:16;;;;;;;1.70;1.40;;;;;;;13.19;100.00;97654.56;1700962;75;744857;-71
2023/06/15 01:24:59;;;;;;;2.30;1.40;;;;;;;13.12;100.00;97657.75;1706740;75;822910;-72
2023/06/15 01:27:33;;;;;;;1.30;1.20;;;;;;;13.20;100.00;97667.06;1700979;75;744248;-72
2023/06/15 01:30:07;;;;;;;1.40;1.30;;;;;;;13.13;100.00;97662.03;1679603;75;3200865;-72
2023/06/15 01:32:38;;;;;;;1.75;1.45;;;;;;;13.15;100.00;97656.78;1700920;75;749710;-73
2023/06/15 01:35:09;;;;;;;1.50;1.40;;;;;;;13.10;100.00;97654.75;1709323;75;675794;-70
2023/06/15 01:37:40;;;;;;;1.30;1.20;;;;;;;13.08;100.00;97659.25;1698278;75;931845;-71
2023/06/15 01:40:11;;;;;;;1.40;1.30;;;;;;;13.03;100.00;97657.97;1709343;75;670758;-70
2023/06/15 01:42:47;;;;;;;1.40;1.20;;;;;;;13.05;100.00;97652.00;1687089;75;1851425;-72
2023/06/15 01:45:18;;;;;;;1.45;1.35;;;;;;;12.96;100.00;97647.44;1703333;75;969668;-69
2023/06/15 01:47:50;;;;;;;1.70;1.40;;;;;;;12.95;100.00;97640.44;1711554;75;884628;-70
2023/06/15 01:50:22;;;;;;;1.00;0.90;;;;;;;12.98;100.00;97639.47;1705438;75;711883;-71
2023/06/15 01:52:52;;;;;;;1.20;1.10;;;;;;;12.90;100.00;97636.44;1700863;75;1734038;-70
2023/06/15 01:55:22;;;;;;;1.40;1.30;;;;;;;12.88;100.00;97638.16;1706081;75;692460;-73
2023/06/15 01:57:57;;;;;;;1.65;1.55;;;;;;;12.87;100.00;97639.38;1714315;75;679261;-70
2023/06/15 02:00:28;;;;;;;3.50;1.60;;;;;;;12.76;100.00;97638.09;1644287;75;5872210;-69
2023/06/15 02:02:58;;;;;;;1.70;1.60;;;;;;;12.84;100.00;97629.41;1711906;75;673867;-73
2023/06/15 02:05:28;;;;;;;1.35;1.25;;;;;;;12.88;100.00;97638.16;1702021;75;692415;-71
2023/06/15 02:07:59;;;;;;;1.75;1.65;;;;;;;12.86;100.00;97629.66;1710125;75;670053;-70
2023/06/15 02:10:29;;;;;;;1.60;1.50;;;;;;;12.87;100.00;97637.41;1702365;75;678515;-73
2023/06/15 02:13:02;;;;;;;1.40;1.30;;;;;;;12.84;100.00;97638.38;1710367;75;677974;-74
2023/06/15 02:15:33;;;;;;;1.40;1.30;;;;;;;12.87;100.00;97637.41;1702161;75;678860;-70
2023/06/15 02:18:07;;;;;;;1.60;1.50;;;;;;;12.79;100.00;97639.88;1708642;75;815354;-72
2023/06/15 02:20:37;;;;;;;1.20;1.10;;;;;;;12.82;100.00;97635.41;1702230;75;672181;-73
2023/06/15 02:23:07;;;;;;;3.00;1.30;;;;;;;12.81;100.00;97647.63;1710360;75;669240;-72
2023/06/15 02:25:37;;;;;;;1.40;1.30;;;;;;;12.78;100.00;97643.09;1701554;75;667182;-72
2023/06/15 02:28:10;;;;;;;1.30;1.20;;;;;;;12.75;100.00;97641.34;1710198;75;669239;-73
2023/06/15 02:30:41;;;;;;;1.45;1.35;;;;;;;12.69;100.00;97649.53;1701109;75;675246;-70
2023/06/15 02:33:12;;;;;;;0.80;0.80;;;;;;;12.71;100.00;97646.31;1709616;75;670458;-72
2023/06/15 02:35:43;;;;;;;1.40;1.30;;;;;;;12.65;100.00;97654.53;1700398;75;746715;-68
2023/06/15 02:38:13;;;;;;;1.20;1.10;;;;;;;12.62;100.00;97646.50;1710210;75;675936;-72
2023/06/15 02:40:43;;;;;;;1.20;1.10;;;;;;;12.51;100.00;97649.94;1699769;75;760352;-70
2023/06/15 02:43:16;;;;;;;1.45;1.35;;;;;;;12.49;100.00;97652.41;1709998;75;671882;-71
2023/06/15 02:45:46;;;;;;;1.40;1.30;;;;;;;12.47;100.00;97643.91;1700767;75;745063;-73
2023/06/15 02:48:17;;;;;;;1.40;1.20;;;;;;;12.44;100.00;97645.63;1709995;75;668392;-73
2023/06/15 02:50:47;;;;;;;1.15;1.05;;;;;;;12.44;100.00;97656.63;1701000;75;748315;-71
2023/06/15 02:53:17;;;;;;;1.45;1.35;;;;;;;12.38;100.00;97649.56;1710280;75;668500;-70
2023/06/15 02:55:47;;;;;;;1.20;1.10;;;;;;;12.36;100.00;97650.84;1700854;75;744691;-72
2023/06/15 02:58:20;;;;;;;1.20;1.10;;;;;;;12.32;100.00;97644.06;1709865;75;675409;-74
2023/06/15 03:00:51;;;;;;;1.10;1.00;;;;;;;12.25;100.00;97644.50;1700478;75;747621;-70
2023/06/15 03:03:27;;;;;;;2.00;1.30;;;;;;;12.22;100.00;97648.97;1709679;75;668489;-72
2023/06/15 03:05:58;;;;;;;1.30;1.20;;;;;;;12.19;100.00;97647.19;1701112;75;718743;-73
2023/06/15 03:08:32;;;;;;;1.30;1.20;;;;;;;12.20;100.00;97648.69;1710191;75;673231;-72
2023/06/15 03:11:02;;;;;;;1.15;1.05;;;;;;;12.14;100.00;97650.63;1701130;75;741668;-70
2023/06/15 03:13:35;;;;;;;1.30;1.20;;;;;;;12.13;100.00;97652.63;1709555;75;672940;-74
2023/06/15 03:16:07;;;;;;;1.50;1.40;;;;;;;12.04;100.00;97657.53;1699779;75;751553;-72
2023/06/15 03:18:37;;;;;;;1.50;1.30;;;;;;;12.07;100.00;97667.53;1709439;75;672194;-72
2023/06/15 03:21:07;;;;;;;1.60;1.40;;;;;;;12.06;100.00;97671.53;1700483;75;723294;-74
2023/06/15 03:23:38;;;;;;;1.70;1.40;;;;;;;12.00;100.00;97665.22;1709843;75;673303;-74
2023/06/15 03:26:10;;;;;;;1.35;1.25;;;;;;;12.00;100.00;97674.22;1699907;75;739849;-72
2023/06/15 03:28:43;;;;;;;1.50;1.40;;;;;;;11.96;100.00;97670.94;1710069;75;673462;-70
2023/06/15 03:31:16;;;;;;;1.75;1.65;;;;;;;12.00;100.00;97673.47;1699965;75;758580;-72
2023/06/15 03:33:47;;;;;;;2.30;2.00;;;;;;;11.93;100.00;97671.91;1709784;75;705132;-73
2023/06/15 03:36:18;;;;;;;2.55;2.35;;;;;;;11.94;100.00;97665.19;1700764;75;758012;-71
2023/06/15 03:38:48;;;;;;;1.80;1.60;;;;;;;12.05;100.00;97670.78;1710318;75;675531;-67
2023/06/15 03:41:18;;;;;;;1.60;1.50;;;;;;;12.01;100.00;97675.72;1700132;75;749685;-75
2023/06/15 03:43:51;;;;;;;1.60;1.50;;;;;;;12.05;100.00;97680.97;1709802;75;677501;-68
2023/06/15 03:46:21;;;;;;;1.50;1.40;;;;;;;11.99;100.00;97677.44;1700845;75;750354;-71
2023/06/15 03:48:51;;;;;;;1.20;1.10;;;;;;;12.00;100.00;97687.94;1709956;75;682655;-72
2023/06/15 03:51:22;;;;;;;1.50;1.40;;;;;;;12.06;100.00;97677.75;1699662;75;749650;-72
2023/06/15 03:53:52;;;;;;;1.30;1.20;;;;;;;11.99;100.00;97683.69;1709452;75;684680;-71
2023/06/15 03:56:22;;;;;;;1.50;1.40;;;;;;;12.07;100.00;97689.50;1701100;75;752678;-70
2023/06/15 03:58:55;;;;;;;1.80;1.60;;;;;;;12.11;100.00;97692.78;1709392;75;673619;-69
2023/06/15 04:01:26;;;;;;;1.60;1.50;;;;;;;12.17;100.00;97688.09;1700211;75;747228;-69
2023/06/15 04:03:57;;;;;;;2.05;1.20;;;;;;;12.18;100.00;97691.59;1709003;75;720088;-69
2023/06/15 04:06:27;;;;;;;2.30;1.90;;;;;;;12.14;100.00;97691.78;1700397;75;758523;-73
2023/06/15 04:08:57;;;;;;;1.45;1.35;;;;;;;12.27;100.00;97702.41;1708714;75;676548;-69
2023/06/15 04:11:28;;;;;;;1.30;1.20;;;;;;;12.34;100.00;97702.72;1684712;75;1898567;-74
2023/06/15 04:14:01;;;;;;;1.10;1.00;;;;;;;12.34;100.00;97699.97;1708699;75;672516;-72
2023/06/15 04:16:31;;;;;;;1.55;1.40;;;;;;;12.44;100.00;97697.81;1699491;75;747070;-70
2023/06/15 04:19:01;;;;;;;2.50;1.60;;;;;;;12.50;100.00;97698.59;1709667;75;670555;-72
2023/06/15 04:21:31;;;;;;;2.25;2.05;;;;;;;12.54;100.00;97703.88;1687465;75;1786011;-71
2023/06/15 04:24:01;;;;;;;2.55;2.15;;;;;;;12.64;100.00;97707.94;1709672;75;673123;-71
2023/06/15 04:26:31;;;;;;;3.35;2.80;;;;;;;12.65;100.00;97705.94;1701022;75;742673;-73
2023/06/15 04:29:04;;;;;;;3.95;2.80;;;;;;;12.69;100.00;97707.22;1709533;75;667920;-72
2023/06/15 04:31:34;;;;;;;2.45;2.25;;;;;;;12.80;100.00;97712.06;1700274;75;750214;-72
2023/06/15 04:34:06;;;;;;;3.90;3.45;;;;;;;12.80;100.00;97709.31;1709274;75;679896;-71
2023/06/15 04:36:39;;;;;;;5.85;4.80;;;;;;;12.88;100.00;97712.34;1698622;75;854004;-73
2023/06/15 04:39:09;;;;;;;5.00;4.20;;;;;;;12.95;100.00;97703.66;1709310;75;677537;-69
2023/06/15 04:41:39;;;;;;;5.30;4.50;;;;;;;13.00;100.00;97708.41;1688116;75;1707063;-70
2023/06/15 04:44:12;;;;;;;7.00;6.20;;;;;;;13.03;100.00;97710.19;1709540;75;670257;-70
2023/06/15 04:46:42;;;;;;;5.50;4.75;;;;;;;13.18;100.00;97719.03;1701019;75;750540;-73
2023/06/15 04:49:12;;;;;;;4.80;4.30;;;;;;;13.27;100.00;97714.56;1710265;75;679195;-72
2023/06/15 04:51:43;;;;;;;4.25;3.85;;;;;;;13.38;100.00;97718.16;1701946;75;750736;-73
2023/06/15 04:54:13;;;;;;;4.60;3.30;;;;;;;13.49;100.00;97716.69;1709925;75;673605;-70
2023/06/15 04:56:43;;;;;;;3.40;3.10;;;;;;;13.64;100.00;97717.25;1702045;75;757109;-70
2023/06/15 04:59:16;;;;;;;7.10;5.00;;;;;;;13.70;100.00;97718.00;1710293;75;670017;-70
2023/06/15 05:01:46;;;;;;;5.20;4.70;;;;;;;13.86;100.00;97713.81;1700845;75;750540;-73
2023/06/15 05:04:16;;;;;;;7.70;4.95;;;;;;;13.81;100.00;97720.06;1709375;75;671227;-73
2023/06/15 05:06:47;;;;;;;6.55;4.95;;;;;;;13.92;100.00;97717.31;1701018;75;745678;-71
2023/06/15 05:09:17;;;;;;;6.55;5.55;;;;;;;13.89;100.00;97721.06;1709535;75;675931;-75
2023/06/15 05:11:47;;;;;;;8.90;5.75;;;;;;;13.96;100.00;97717.09;1699748;75;752777;-71
2023/06/15 05:14:20;;;;;;;8.00;5.70;;;;;;;14.15;100.00;97725.66;1708622;75;676621;-73
2023/06/15 05:16:50;;;;;;;7.55;5.45;;;;;;;14.23;100.00;97729.41;1701055;75;761323;-70
2023/06/15 05:19:21;;;;;;;6.70;5.80;;;;;;;14.37;100.00;97735.94;1709956;75;674006;-72
2023/06/15 05:21:53;;;;;;;6.70;5.35;;;;;;;14.37;100.00;97742.19;1700639;75;762543;-72
2023/06/15 05:24:23;;;;;;;6.60;5.90;;;;;;;14.43;100.00;97745.72;1708724;75;679886;-73
2023/06/15 05:26:53;;;;;;;7.85;5.60;;;;;;;14.42;100.00;97748.94;1700270;75;753940;-72
2023/06/15 05:29:27;;;;;;;6.30;5.30;;;;;;;14.42;100.00;97746.94;1709256;75;673109;-71
2023/06/15 05:31:59;;;;;;;5.95;4.85;;;;;;;14.68;100.00;97743.22;1699681;75;755233;-70
2023/06/15 05:34:30;;;;;;;6.50;5.80;;;;;;;14.58;100.00;97742.72;1708261;75;669643;-70
2023/06/15 05:37:00;;;;;;;7.30;4.50;;;;;;;14.89;100.00;97733.44;1700457;75;749433;-72
2023/06/15 05:39:30;;;;;;;7.15;5.65;;;;;;;14.63;100.00;97741.97;1708223;75;673867;-69
2023/06/15 05:42:01;;;;;;;7.20;5.00;;;;;;;14.75;100.00;97744.75;1700423;75;760650;-71
2023/06/15 05:44:33;;;;;;;5.80;4.60;;;;;;;14.56;100.00;97747.97;1708519;75;674474;-72
2023/06/15 05:47:04;;;;;;;7.60;5.40;;;;;;;14.78;100.00;97749.97;1700170;75;770774;-70
2023/06/15 05:49:35;;;;;;;6.50;4.90;;;;;;;15.07;100.00;97758.97;1709399;75;673626;-71
2023/06/15 05:52:05;;;;;;;5.75;4.40;;;;;;;15.03;100.00;97753.72;1701125;75;753051;-73
2023/06/15 05:54:35;;;;;;;6.95;4.85;;;;;;;15.19;100.00;97757.69;1709583;75;671300;-70
2023/06/15 05:57:06;;;;;;;5.75;4.05;;;;;;;15.61;100.00;97755.84;1704149;75;749980;-71
2023/06/15 05:59:38;;;;;;;9.20;4.70;;;;;;;15.13;100.00;97759.72;1712932;75;680677;-73
2023/06/15 06:02:10;;;;;;;6.30;5.05;;;;;;;15.29;100.00;97766.44;1703918;75;758536;-72
2023/06/15 06:04:40;;;;;;;6.20;4.80;;;;;;;15.41;100.00;97764.41;1711904;75;670000;-73
2023/06/15 06:07:10;;;;;;;7.75;4.90;;;;;;;15.39;100.00;97762.16;1704119;75;749905;-72
2023/06/15 06:09:41;;;;;;;5.50;4.90;;;;;;;15.53;100.00;97763.88;1711141;75;677417;-71
2023/06/15 06:12:13;;;;;;;4.75;4.25;;;;;;;15.72;100.00;97766.84;1701217;75;763607;-71
2023/06/15 06:14:46;;;;;;;6.60;5.00;;;;;;;15.60;100.00;97765.38;1709853;75;671209;-73
2023/06/15 06:17:16;;;;;;;6.55;4.85;;;;;;;15.53;100.00;97768.66;1700338;75;752981;-70
2023/06/15 06:19:48;;;;;;;8.80;4.70;;;;;;;15.64;100.00;97771.38;1708567;75;696253;-70
2023/06/15 06:22:18;;;;;;;5.70;3.70;;;;;;;16.11;100.00;97768.66;1700695;75;747248;-73
2023/06/15 06:24:48;;;;;;;5.45;4.40;;;;;;;16.04;100.00;97776.75;1707918;75;673291;-72
2023/06/15 06:27:18;;;;;;;6.35;5.00;;;;;;;15.90;100.00;97776.56;1700172;75;758446;-72
2023/06/15 06:29:51;;;;;;;4.85;3.90;;;;;;;16.35;100.00;97786.63;1709260;75;670001;-73
2023/06/15 06:32:21;;;;;;;6.05;4.55;;;;;;;15.94;100.00;97787.34;1699093;75;818723;-73
2023/06/15 06:34:52;;;;;;;5.50;4.30;;;;;;;16.26;100.00;97784.94;1708969;75;717294;-72
2023/06/15 06:37:22;;;;;;;5.15;3.95;;;;;;;15.98;100.00;97794.09;1700625;75;745006;-72
2023/06/15 06:39:52;;;;;;;10.35;5.30;;;;;;;16.07;100.00;97786.78;1708940;75;690885;-76
2023/06/15 06:42:22;;;;;;;6.95;4.40;;;;;;;16.11;100.00;97784.50;1701237;75;750318;-74
2023/06/15 06:44:55;;;;;;;8.15;5.10;;;;;;;16.27;100.00;97791.19;1708856;75;794711;-74
2023/06/15 06:47:26;;;;;;;5.95;5.05;;;;;;;16.36;100.00;97790.91;1701005;75;749291;-72
2023/06/15 06:49:56;;;;;;;7.60;5.45;;;;;;;16.32;100.00;97791.16;1709290;75;672492;-70
2023/06/15 06:52:26;;;;;;;6.40;4.10;;;;;;;16.72;100.00;97796.44;1700007;75;760746;-75
2023/06/15 06:54:56;;;;;;;7.25;4.70;;;;;;;16.53;100.00;97788.75;1709756;75;674519;-74
2023/06/15 06:57:32;;;;;;;7.85;5.20;;;;;;;16.40;100.00;97796.88;1701040;75;757080;-72
2023/06/15 07:00:06;;;;;;;6.40;4.50;;;;;;;16.79;100.00;97790.38;1700966;75;701702;-70
2023/06/15 07:02:36;;;;;;;5.30;3.80;;;;;;;17.30;100.00;97787.16;1705209;75;1013377;-74
2023/06/15 07:05:07;;;;;;;7.00;4.40;;;;;;;16.98;100.00;97793.97;1701723;75;676484;-74
2023/06/15 07:07:37;;;;;;;7.10;4.70;;;;;;;16.92;100.00;97790.50;1709867;75;671717;-71
2023/06/15 07:10:10;;;;;;;5.65;3.75;;;;;;;17.35;100.00;97787.09;1701330;75;675291;-71
2023/06/15 07:12:40;;;;;;;9.30;4.30;;;;;;;17.16;100.00;97791.81;1709670;75;706427;-71
2023/06/15 07:15:14;;;;;;;9.85;4.70;;;;;;;17.13;100.00;97782.53;1699254;75;794730;-72
2023/06/15 07:17:44;;;;;;;9.40;4.70;;;;;;;17.17;100.00;97785.00;1707640;75;858384;-73
2023/06/15 07:20:14;;;;;;;5.90;4.20;;;;;;;17.52;100.00;97794.47;1702279;75;680899;-74
2023/06/15 07:22:46;;;;;;;6.05;3.65;;;;;;;17.84;100.00;97792.59;1710781;75;674663;-72
2023/06/15 07:25:16;;;;;;;4.70;3.30;;;;;;;18.13;96.98;97790.22;1702400;75;674565;-72
2023/06/15 07:27:49;;;;;;;4.25;3.30;;;;;;;18.00;97.23;97787.41;1710032;75;673849;-76
2023/06/15 07:30:22;;;;;;;5.00;3.45;;;;;;;17.92;92.75;97792.00;1700668;75;674954;-73
2023/06/15 07:32:55;;;;;;;3.50;2.70;;;;;;;17.90;94.28;97784.25;1709856;75;679612;-73
2023/06/15 07:35:25;;;;;;;4.60;2.70;;;;;;;18.03;91.76;97787.09;1701857;75;673006;-72
2023/06/15 07:37:55;;;;;;;3.50;2.45;;;;;;;18.20;92.77;97786.84;1709540;75;679798;-73
2023/06/15 07:40:25;;;;;;;5.50;3.75;;;;;;;17.76;98.57;97780.59;1700063;75;693893;-72
2023/06/15 07:42:56;;;;;;;5.30;4.05;;;;;;;17.42;99.30;97785.78;1709450;75;682313;-71
2023/06/15 07:45:29;;;;;;;3.90;3.50;;;;;;;17.93;91.07;97782.44;1701727;75;677176;-72
2023/06/15 07:47:59;;;;;;;4.40;3.20;;;;;;;17.76;88.75;97775.06;1709821;75;680571;-71
2023/06/15 07:50:32;;;;;;;3.95;2.75;;;;;;;17.96;84.24;97778.63;1699788;75;744508;-73
2023/06/15 07:53:02;;;;;;;3.00;2.60;;;;;;;18.19;85.40;97784.63;1709868;75;672178;-72
2023/06/15 07:55:32;;;;;;;2.40;1.80;;;;;;;18.38;80.87;97779.81;1700795;75;748583;-75
2023/06/15 07:58:03;;;;;;;1.90;1.70;;;;;;;18.53;79.56;97791.19;1709965;75;671143;-73
2023/06/15 08:00:36;;;;;;;2.30;1.60;;;;;;;18.51;77.00;97790.94;1700271;75;743027;-70
2023/06/15 08:03:06;;;;;;;1.50;1.40;;;;;;;18.68;78.72;97789.97;1709237;75;679418;-71
2023/06/15 08:05:36;;;;;;;2.10;1.70;;;;;;;18.71;77.46;97795.22;1699715;75;750313;-71
2023/06/15 08:08:07;;;;;;;1.50;1.30;;;;;;;18.67;77.69;97796.78;1709296;75;698714;-72
2023/06/15 08:10:37;;;;;;;1.40;1.30;;;;;;;18.64;78.06;97793.03;1699123;75;749246;-74
2023/06/15 08:13:07;;;;;;;2.35;1.60;;;;;;;18.68;80.10;97799.00;1709192;75;669674;-70
2023/06/15 08:15:40;;;;;;;1.30;1.20;;;;;;;18.77;76.64;97795.13;1700998;75;749768;-75
2023/06/15 08:18:12;;;;;;;1.70;1.60;;;;;;;18.80;76.08;97799.63;1709048;75;672347;-71
2023/06/15 08:20:42;;;;;;;1.60;1.50;;;;;;;18.92;74.55;97802.97;1698892;75;742194;-72
2023/06/15 08:23:13;;;;;;;1.45;1.35;;;;;;;19.00;75.99;97803.84;1708354;75;763218;-72
2023/06/15 08:25:43;;;;;;;2.00;1.40;;;;;;;19.19;75.03;97789.88;1700616;75;756332;-74
2023/06/15 08:28:13;;;;;;;1.45;1.35;;;;;;;19.23;75.08;97801.44;1709863;75;675124;-73
2023/06/15 08:30:46;;;;;;;1.60;1.30;;;;;;;19.35;74.23;97797.16;1699809;75;757839;-72
2023/06/15 08:33:16;;;;;;;1.50;1.40;;;;;;;19.06;73.07;97792.66;1707380;75;683892;-70
2023/06/15 08:35:46;;;;;;;3.00;2.50;;;;;;;19.22;72.12;97799.19;1699594;75;756993;-71
2023/06/15 08:38:17;;;;;;;2.70;2.20;;;;;;;19.53;72.51;97787.25;1709529;75;676871;-70
2023/06/15 08:40:48;;;;;;;2.55;2.15;;;;;;;19.75;72.22;97788.88;1699778;75;754284;-75
2023/06/15 08:43:20;;;;;;;3.10;2.60;;;;;;;19.66;71.29;97785.75;1709666;75;671619;-70
2023/06/15 08:45:56;;;;;;;2.50;2.00;;;;;;;19.87;72.39;97788.66;1700986;75;751204;-70
2023/06/15 08:48:27;;;;;;;2.10;1.90;;;;;;;20.08;69.02;97788.72;1701721;75;677752;-70
2023/06/15 08:50:58;;;;;;;1.80;1.50;;;;;;;20.45;67.73;97789.72;1709118;75;675395;-71
2023/06/15 08:53:30;;;;;;;2.20;2.00;;;;;;;20.37;66.23;97786.81;1701621;75;689089;-71
2023/06/15 08:56:00;;;;;;;2.05;1.80;;;;;;;20.55;65.94;97791.50;1709770;75;675625;-72
2023/06/15 08:58:30;;;;;;;1.70;1.60;;;;;;;20.47;64.30;97782.31;1701743;75;671587;-71
2023/06/15 09:01:05;;;;;;;3.30;2.50;;;;;;;20.32;65.35;97787.69;1708765;75;676284;-72
2023/06/15 09:03:36;;;;;;;2.10;1.80;;;;;;;20.90;65.77;97783.09;1701849;75;682785;-73
2023/06/15 09:06:07;;;;;;;2.10;1.80;;;;;;;20.74;63.57;97785.75;1708811;75;678760;-72
2023/06/15 09:08:37;;;;;;;2.95;2.35;;;;;;;20.78;63.74;97779.84;1701834;75;672633;-74
2023/06/15 09:11:12;;;;;;;1.80;1.65;;;;;;;21.30;62.40;97769.66;1709021;75;675224;-72
2023/06/15 09:13:42;;;;;;;3.20;2.20;;;;;;;21.02;58.71;97768.38;1699717;75;691034;-73
2023/06/15 09:16:15;;;;;;;3.30;2.40;;;;;;;21.04;61.54;97767.81;1709619;75;674233;-75
2023/06/15 09:18:51;;;;;;;2.65;2.10;;;;;;;21.01;60.56;97766.13;1700827;75;685518;-72
2023/06/15 09:21:23;;;;;;;2.40;1.90;;;;;;;21.09;60.70;97766.91;1707679;75;741327;-70
2023/06/15 09:23:53;;;;;;;2.70;2.20;;;;;;;20.83;62.37;97768.59;1701654;75;751453;-74
2023/06/15 09:26:28;;;;;;;3.95;2.20;;;;;;;20.91;62.24;97759.56;1710601;75;707452;-73
2023/06/15 09:29:02;;;;;;;3.55;3.20;;;;;;;21.04;62.21;97751.09;1702575;75;735934;-73
2023/06/15 09:31:37;;;;;;;3.30;2.60;;;;;;;21.24;58.94;97753.13;1710882;75;668448;-71
2023/06/15 09:34:09;;;;;;;4.80;3.10;;;;;;;20.30;62.27;97751.34;1701552;75;747879;-73
2023/06/15 09:36:44;;;;;;;3.40;2.50;;;;;;;20.69;61.64;97753.25;1710354;75;681415;-71
2023/06/15 09:39:16;;;;;;;3.50;2.50;;;;;;;20.93;62.04;97743.06;1700910;75;745810;-71
2023/06/15 09:41:57;;;;;;;4.40;2.40;;;;;;;21.18;63.75;97755.28;1709601;75;673101;-76
2023/06/15 09:44:28;;;;;;;4.00;2.80;;;;;;;20.59;62.38;97750.19;1698474;75;876216;-74
2023/06/15 09:47:02;;;;;;;3.50;2.90;;;;;;;20.87;64.02;97740.41;1709713;75;676726;-71
2023/06/15 09:49:33;;;;;;;3.85;3.20;;;;;;;20.61;60.73;97738.50;1699997;75;747692;-72
2023/06/15 09:52:04;;;;;;;3.00;2.60;;;;;;;20.88;60.74;97743.94;1708610;75;680847;-73
2023/06/15 09:54:35;;;;;;;4.50;2.95;;;;;;;19.69;61.91;97738.25;1699416;75;751469;-74
2023/06/15 09:57:05;;;;;;;5.20;3.60;;;;;;;19.87;61.58;97744.97;1708566;75;672940;-74
2023/06/15 09:59:36;;;;;;;2.95;2.50;;;;;;;20.73;62.06;97739.00;1699561;75;765436;-72
2023/06/15 10:02:15;;;;;;;2.45;2.25;;;;;;;20.90;60.46;97736.56;1708113;75;677393;-74
2023/06/15 10:04:49;;;;;;;3.05;2.45;;;;;;;21.03;61.36;97730.88;1700405;75;749677;-74
2023/06/15 10:07:22;;;;;;;3.10;2.50;;;;;;;21.09;59.75;97730.00;1709272;75;682444;-71
2023/06/15 10:09:55;;;;;;;2.85;2.35;;;;;;;20.84;59.39;97722.75;1700020;75;751413;-73
2023/06/15 10:12:33;;;;;;;4.25;3.35;;;;;;;21.21;61.25;97720.81;1708841;75;671487;-72
2023/06/15 10:15:12;;;;;;;5.70;4.50;;;;;;;20.69;57.76;97716.34;1700118;75;755994;-74
2023/06/15 10:17:48;;;;;;;3.30;2.55;;;;;;;21.17;58.97;97716.88;1701557;75;739057;-74
2023/06/15 10:20:21;;;;;;;2.30;2.00;;;;;;;21.69;60.65;97709.38;1708802;75;671829;-71
2023/06/15 10:22:59;;;;;;;2.55;2.25;;;;;;;21.80;59.63;97708.31;1701405;75;684198;-74
2023/06/15 10:25:30;;;;;;;2.80;2.50;;;;;;;21.67;58.61;97701.56;1709534;75;672929;-73
2023/06/15 10:28:02;;;;;;;3.70;2.70;;;;;;;21.11;57.89;97703.09;1701534;75;676762;-74
2023/06/15 10:30:58;;;;;;;2.70;2.50;;;;;;;21.20;59.42;97705.38;1708620;75;673821;-72
2023/06/15 10:33:42;;;;;;;3.45;2.65;;;;;;;21.52;57.17;97695.19;1701318;75;746037;-74
2023/06/15 10:36:25;;;;;;;5.00;2.80;;;;;;;21.68;58.91;97700.28;1701801;75;700426;-72
2023/06/15 10:39:05;;;;;;;3.40;2.70;;;;;;;21.37;58.25;97704.19;1710889;75;678725;-74
2023/06/15 10:41:37;;;;;;;4.75;2.95;;;;;;;21.70;60.28;97691.38;1700766;75;757541;-74
2023/06/15 10:44:08;;;;;;;6.20;3.40;;;;;;;20.52;59.62;97689.66;1712329;75;749847;-72
2023/06/15 10:46:40;;;;;;;5.10;3.35;;;;;;;20.90;58.77;97694.03;1704040;75;760006;-72
2023/06/15 10:49:14;;;;;;;4.00;3.10;;;;;;;21.91;58.86;97691.25;1712478;75;677697;-74
2023/06/15 10:51:54;;;;;;;3.00;2.30;;;;;;;22.03;57.37;97697.97;1704353;75;747472;-74
2023/06/15 10:54:26;;;;;;;3.65;2.95;;;;;;;21.99;57.95;97686.44;1705648;75;677782;-73
2023/06/15 10:56:58;;;;;;;3.70;2.70;;;;;;;21.70;57.81;97688.59;1711635;75;676211;-73
2023/06/15 10:59:49;;;;;;;2.55;2.25;;;;;;;22.75;56.59;97685.06;1703004;75;676661;-74
2023/06/15 11:02:54;;;;;;;2.65;2.00;;;;;;;23.31;55.53;97683.13;1709561;75;692325;-71
2023/06/15 11:05:28;;;;;;;3.40;2.70;;;;;;;22.25;56.95;97674.25;1701922;75;700093;-73
2023/06/15 11:07:58;;;;;;;4.00;2.70;;;;;;;22.94;55.91;97673.50;1709986;75;673576;-73
2023/06/15 11:10:33;;;;;;;3.10;2.40;;;;;;;22.67;55.25;97671.09;1701901;75;678008;-70
2023/06/15 11:13:09;;;;;;;3.10;2.20;;;;;;;22.58;55.10;97674.44;1709819;75;676524;-71
2023/06/15 11:15:41;;;;;;;3.10;2.40;;;;;;;22.62;54.96;97674.09;1701411;75;678554;-72
2023/06/15 11:18:17;;;;;;;3.05;2.40;;;;;;;22.40;55.57;97679.09;1710065;75;679034;-72
2023/06/15 11:21:05;;;;;;;3.15;2.00;;;;;;;22.53;55.24;97673.34;1700130;75;731184;-74
2023/06/15 11:23:37;;;;;;;2.80;2.10;;;;;;;23.09;54.29;97673.53;1702127;75;678923;-72
2023/06/15 11:26:09;;;;;;;3.00;1.90;;;;;;;23.52;54.42;97665.38;1709871;75;698502;-74
2023/06/15 11:28:41;;;;;;;2.00;1.80;;;;;;;23.10;53.50;97663.81;1701032;75;672202;-72
2023/06/15 11:31:22;;;;;;;2.40;1.90;;;;;;;22.86;54.18;97659.56;1683333;75;2966973;-73
2023/06/15 11:33:52;;;;;;;6.10;2.65;;;;;;;22.65;53.98;97665.34;1700304;75;776454;-73
2023/06/15 11:36:25;;;;;;;6.45;2.85;;;;;;;22.05;54.75;97653.56;1709295;75;677470;-72
2023/06/15 11:38:56;;;;;;;3.70;2.20;;;;;;;23.56;54.89;97657.34;1701077;75;753795;-74
2023/06/15 11:41:26;;;;;;;2.50;2.10;;;;;;;23.59;53.28;97647.81;1708414;75;681722;-73